createdAt,value
2018-06-27T00:00:16.107Z,0.00
2018-06-27T00:01:16.088Z,0.00
2018-06-27T00:02:16.070Z,0.00
2018-06-27T00:03:16.054Z,0.00
2018-06-27T00:04:16.050Z,0.00
2018-06-27T00:05:16.017Z,0.00
2018-06-27T00:06:15.999Z,0.00
2018-06-27T00:07:15.982Z,0.00
2018-06-27T00:08:16.017Z,0.00
2018-06-27T00:09:15.947Z,0.00
2018-06-27T00:10:15.947Z,0.00
2018-06-27T00:11:15.911Z,0.00
2018-06-27T00:12:15.894Z,0.00
2018-06-27T00:13:15.876Z,0.00
2018-06-27T00:14:15.859Z,0.00
2018-06-27T00:15:15.845Z,0.00
2018-06-27T00:16:15.835Z,0.00
2018-06-27T00:17:15.807Z,0.00
2018-06-27T00:18:15.788Z,0.00
2018-06-27T00:19:15.800Z,0.00
2018-06-27T00:20:15.752Z,0.00
2018-06-27T00:21:15.751Z,0.00
2018-06-27T00:22:15.718Z,0.00
2018-06-27T00:23:15.698Z,0.00
2018-06-27T00:24:15.682Z,0.00
2018-06-27T00:25:15.666Z,0.00
2018-06-27T00:26:15.646Z,0.00
2018-06-27T00:27:15.645Z,0.00
2018-06-27T00:28:15.612Z,0.00
2018-06-27T00:29:15.593Z,0.00
2018-06-27T00:30:15.578Z,0.00
2018-06-27T00:31:15.558Z,0.00
2018-06-27T00:32:15.541Z,0.00
2018-06-27T00:33:15.533Z,0.00
2018-06-27T00:34:15.519Z,0.00
2018-06-27T00:35:15.486Z,0.00
2018-06-27T00:36:15.469Z,0.00
2018-06-27T00:37:15.456Z,0.00
2018-06-27T00:38:15.451Z,0.00
2018-06-27T00:39:15.414Z,0.00
2018-06-27T00:40:15.398Z,0.00
2018-06-27T00:41:15.378Z,0.00
2018-06-27T00:42:15.362Z,0.00
2018-06-27T00:43:15.344Z,0.00
2018-06-27T00:44:15.342Z,0.00
2018-06-27T00:45:15.316Z,0.00
2018-06-27T00:46:15.295Z,0.00
2018-06-27T00:47:15.272Z,0.00
2018-06-27T00:48:15.261Z,0.00
2018-06-27T00:49:15.238Z,0.00
2018-06-27T00:50:15.229Z,0.00
2018-06-27T00:51:15.200Z,0.00
2018-06-27T00:52:15.191Z,0.00
2018-06-27T00:53:15.164Z,0.00
2018-06-27T00:54:15.147Z,0.00
2018-06-27T00:55:15.144Z,0.00
2018-06-27T00:56:15.110Z,0.00
2018-06-27T00:57:15.091Z,0.00
2018-06-27T00:58:15.074Z,0.00
2018-06-27T00:59:15.068Z,0.00
2018-06-27T01:00:15.038Z,0.00
2018-06-27T01:01:15.036Z,0.00
2018-06-27T01:02:15.002Z,0.00
2018-06-27T01:03:15.006Z,0.00
2018-06-27T01:04:14.966Z,0.00
2018-06-27T01:05:14.969Z,0.00
2018-06-27T01:06:14.941Z,0.00
2018-06-27T01:07:14.933Z,0.00
2018-06-27T01:08:14.899Z,0.00
2018-06-27T01:09:14.876Z,0.00
2018-06-27T01:10:15.736Z,0.00
2018-06-27T01:11:14.841Z,0.00
2018-06-27T01:12:14.880Z,0.00
2018-06-27T01:13:14.812Z,0.00
2018-06-27T01:14:14.788Z,0.00
2018-06-27T01:15:14.816Z,0.00
2018-06-27T01:16:14.763Z,0.00
2018-06-27T01:17:14.774Z,0.00
2018-06-27T01:18:14.746Z,0.00
2018-06-27T01:19:14.693Z,0.00
2018-06-27T01:20:14.676Z,0.00
2018-06-27T01:21:14.656Z,0.00
2018-06-27T01:22:14.638Z,0.00
2018-06-27T01:23:14.620Z,0.00
2018-06-27T01:24:14.626Z,0.00
2018-06-27T01:25:14.584Z,0.00
2018-06-27T01:26:14.565Z,0.00
2018-06-27T01:27:14.548Z,0.00
2018-06-27T01:28:14.529Z,0.00
2018-06-27T01:29:14.512Z,0.00
2018-06-27T01:30:14.506Z,0.00
2018-06-27T01:31:14.470Z,0.00
2018-06-27T01:32:14.458Z,0.00
2018-06-27T01:33:14.438Z,0.00
2018-06-27T01:34:14.419Z,0.00
2018-06-27T01:35:14.420Z,0.00
2018-06-27T01:36:14.383Z,0.00
2018-06-27T01:37:14.365Z,0.00
2018-06-27T01:38:14.346Z,0.00
2018-06-27T01:39:14.329Z,0.00
2018-06-27T01:40:14.312Z,0.00
2018-06-27T01:41:14.315Z,0.00
2018-06-27T01:42:14.274Z,0.00
2018-06-27T01:43:14.256Z,0.00
2018-06-27T01:44:14.237Z,0.00
2018-06-27T01:45:14.221Z,0.00
2018-06-27T01:46:14.200Z,0.00
2018-06-27T01:47:14.192Z,0.00
2018-06-27T01:48:14.167Z,0.00
2018-06-27T01:49:14.144Z,0.00
2018-06-27T01:50:14.128Z,0.00
2018-06-27T01:51:14.108Z,0.00
2018-06-27T01:52:14.106Z,0.00
2018-06-27T01:53:14.070Z,0.00
2018-06-27T01:54:14.053Z,0.00
2018-06-27T01:55:14.035Z,0.00
2018-06-27T01:56:14.016Z,0.00
2018-06-27T01:57:13.997Z,0.00
2018-06-27T01:58:14.001Z,0.00
2018-06-27T01:59:13.961Z,0.00
2018-06-27T02:00:13.942Z,0.00
2018-06-27T02:01:13.925Z,0.00
2018-06-27T02:02:13.905Z,0.00
2018-06-27T02:03:13.887Z,0.00
2018-06-27T02:04:13.878Z,0.00
2018-06-27T02:05:13.851Z,0.00
2018-06-27T02:06:13.832Z,0.00
2018-06-27T02:07:13.812Z,0.00
2018-06-27T02:08:13.794Z,0.00
2018-06-27T02:09:13.791Z,0.00
2018-06-27T02:10:13.757Z,0.00
2018-06-27T02:11:13.739Z,0.00
2018-06-27T02:12:13.720Z,0.00
2018-06-27T02:13:13.702Z,0.00
2018-06-27T02:14:13.683Z,0.00
2018-06-27T02:15:13.687Z,0.00
2018-06-27T02:16:13.648Z,0.00
2018-06-27T02:17:13.628Z,0.00
2018-06-27T02:18:13.609Z,0.00
2018-06-27T02:19:13.591Z,0.00
2018-06-27T02:20:13.573Z,0.00
2018-06-27T02:21:13.570Z,0.00
2018-06-27T02:22:13.535Z,0.00
2018-06-27T02:23:13.516Z,0.00
2018-06-27T02:24:13.498Z,0.00
2018-06-27T02:25:13.478Z,0.00
2018-06-27T02:26:13.460Z,0.00
2018-06-27T02:27:13.453Z,0.00
2018-06-27T02:28:13.424Z,0.00
2018-06-27T02:29:13.404Z,0.00
2018-06-27T02:30:13.386Z,0.00
2018-06-27T02:31:13.368Z,0.00
2018-06-27T02:32:13.372Z,0.00
2018-06-27T02:33:13.334Z,0.00
2018-06-27T02:34:13.311Z,0.00
2018-06-27T02:35:13.292Z,0.00
2018-06-27T02:36:13.276Z,0.00
2018-06-27T02:37:13.254Z,0.00
2018-06-27T02:38:13.253Z,0.00
2018-06-27T02:39:13.217Z,0.00
2018-06-27T02:40:13.199Z,0.00
2018-06-27T02:41:13.182Z,0.00
2018-06-27T02:42:13.163Z,0.00
2018-06-27T02:43:13.144Z,0.00
2018-06-27T02:44:13.135Z,0.00
2018-06-27T02:45:13.104Z,0.00
2018-06-27T02:46:13.086Z,0.00
2018-06-27T02:47:13.068Z,0.00
2018-06-27T02:48:13.050Z,0.00
2018-06-27T02:49:13.054Z,0.00
2018-06-27T02:50:13.012Z,0.00
2018-06-27T02:51:12.992Z,0.00
2018-06-27T02:52:12.974Z,0.00
2018-06-27T02:53:12.957Z,0.00
2018-06-27T02:54:12.936Z,0.00
2018-06-27T02:55:12.939Z,0.00
2018-06-27T02:56:12.899Z,0.00
2018-06-27T02:57:12.879Z,0.00
2018-06-27T02:58:12.864Z,0.00
2018-06-27T02:59:12.846Z,0.00
2018-06-27T03:00:12.824Z,0.00
2018-06-27T03:01:12.817Z,0.00
2018-06-27T03:02:12.786Z,0.00
2018-06-27T03:03:12.772Z,0.00
2018-06-27T03:04:12.749Z,0.00
2018-06-27T03:05:12.730Z,0.00
2018-06-27T03:06:12.731Z,5.63
2018-06-27T03:07:12.693Z,5.63
2018-06-27T03:08:12.674Z,5.63
2018-06-27T03:09:12.654Z,5.63
2018-06-27T03:10:12.638Z,5.63
2018-06-27T03:11:12.617Z,5.63
2018-06-27T03:12:12.651Z,5.63
2018-06-27T03:13:12.582Z,5.63
2018-06-27T03:14:12.566Z,5.63
2018-06-27T03:15:12.543Z,11.25
2018-06-27T03:16:12.524Z,11.25
2018-06-27T03:17:12.506Z,11.25
2018-06-27T03:18:12.496Z,11.25
2018-06-27T03:19:12.467Z,11.25
2018-06-27T03:20:12.451Z,16.88
2018-06-27T03:21:12.430Z,16.88
2018-06-27T03:22:12.412Z,16.88
2018-06-27T03:23:12.412Z,16.88
2018-06-27T03:24:12.371Z,16.88
2018-06-27T03:25:12.352Z,22.50
2018-06-27T03:26:12.334Z,22.50
2018-06-27T03:27:12.315Z,22.50
2018-06-27T03:28:12.296Z,22.50
2018-06-27T03:29:12.293Z,28.13
2018-06-27T03:30:12.258Z,28.13
2018-06-27T03:31:12.240Z,28.13
2018-06-27T03:32:12.221Z,33.75
2018-06-27T03:33:12.201Z,33.75
2018-06-27T03:34:12.181Z,33.75
2018-06-27T03:35:12.180Z,39.38
2018-06-27T03:36:12.146Z,39.38
2018-06-27T03:37:12.125Z,39.38
2018-06-27T03:38:12.108Z,39.38
2018-06-27T03:39:12.088Z,45.00
2018-06-27T03:40:12.070Z,45.00
2018-06-27T03:41:12.073Z,45.00
2018-06-27T03:42:12.031Z,50.63
2018-06-27T03:43:12.013Z,50.63
2018-06-27T03:44:11.994Z,50.63
2018-06-27T03:45:11.975Z,56.25
2018-06-27T03:46:11.958Z,56.25
2018-06-27T03:47:11.953Z,56.25
2018-06-27T03:48:11.917Z,61.88
2018-06-27T03:49:11.900Z,61.88
2018-06-27T03:50:11.881Z,61.88
2018-06-27T03:51:11.863Z,67.50
2018-06-27T03:52:11.843Z,67.50
2018-06-27T03:53:11.832Z,67.50
2018-06-27T03:54:11.810Z,73.13
2018-06-27T03:55:11.786Z,73.13
2018-06-27T03:56:11.766Z,73.13
2018-06-27T03:57:11.748Z,78.75
2018-06-27T03:58:11.749Z,78.75
2018-06-27T03:59:11.709Z,78.75
2018-06-27T04:00:11.692Z,84.38
2018-06-27T04:01:11.670Z,84.38
2018-06-27T04:02:11.653Z,84.38
2018-06-27T04:03:11.634Z,90.00
2018-06-27T04:04:11.633Z,90.00
2018-06-27T04:05:11.602Z,90.00
2018-06-27T04:06:11.578Z,95.63
2018-06-27T04:07:11.557Z,95.63
2018-06-27T04:08:11.540Z,95.63
2018-06-27T04:09:11.523Z,101.25
2018-06-27T04:10:11.511Z,101.25
2018-06-27T04:11:11.487Z,101.25
2018-06-27T04:12:11.464Z,106.88
2018-06-27T04:13:11.502Z,106.88
2018-06-27T04:14:11.426Z,106.88
2018-06-27T04:15:11.428Z,106.88
2018-06-27T04:16:11.388Z,112.50
2018-06-27T04:17:11.372Z,112.50
2018-06-27T04:18:11.351Z,112.50
2018-06-27T04:19:11.331Z,118.13
2018-06-27T04:20:11.375Z,118.13
2018-06-27T04:21:11.309Z,118.13
2018-06-27T04:22:11.275Z,123.75
2018-06-27T04:23:11.256Z,123.75
2018-06-27T04:24:11.238Z,123.75
2018-06-27T04:25:11.218Z,129.38
2018-06-27T04:26:11.199Z,129.38
2018-06-27T04:27:11.193Z,129.38
2018-06-27T04:28:11.162Z,129.38
2018-06-27T04:29:11.143Z,135.00
2018-06-27T04:30:11.125Z,135.00
2018-06-27T04:31:11.106Z,135.00
2018-06-27T04:32:11.109Z,140.63
2018-06-27T04:33:11.069Z,140.63
2018-06-27T04:34:11.051Z,140.63
2018-06-27T04:35:11.033Z,140.63
2018-06-27T04:36:11.035Z,146.25
2018-06-27T04:37:10.993Z,146.25
2018-06-27T04:38:10.990Z,146.25
2018-06-27T04:39:10.959Z,146.25
2018-06-27T04:40:10.938Z,151.88
2018-06-27T04:41:10.917Z,151.88
2018-06-27T04:42:10.900Z,151.88
2018-06-27T04:43:10.914Z,151.88
2018-06-27T04:44:10.878Z,157.50
2018-06-27T04:45:10.844Z,157.50
2018-06-27T04:46:10.826Z,157.50
2018-06-27T04:47:10.807Z,163.13
2018-06-27T04:48:10.788Z,163.13
2018-06-27T04:49:10.769Z,163.13
2018-06-27T04:50:10.773Z,163.13
2018-06-27T04:51:10.732Z,168.75
2018-06-27T04:52:10.714Z,168.75
2018-06-27T04:53:10.694Z,168.75
2018-06-27T04:54:10.675Z,168.75
2018-06-27T04:55:10.660Z,174.38
2018-06-27T04:56:10.662Z,174.38
2018-06-27T04:57:10.620Z,174.38
2018-06-27T04:58:10.601Z,174.38
2018-06-27T04:59:10.585Z,174.38
2018-06-27T05:00:10.565Z,180.00
2018-06-27T05:01:10.544Z,180.00
2018-06-27T05:02:10.538Z,180.00
2018-06-27T05:03:10.508Z,180.00
2018-06-27T05:04:10.491Z,185.63
2018-06-27T05:05:10.470Z,185.63
2018-06-27T05:06:10.458Z,185.63
2018-06-27T05:07:10.459Z,185.63
2018-06-27T05:08:10.415Z,191.25
2018-06-27T05:09:10.396Z,191.25
2018-06-27T05:10:10.380Z,191.25
2018-06-27T05:11:10.361Z,191.25
2018-06-27T05:12:10.343Z,196.88
2018-06-27T05:13:10.345Z,196.88
2018-06-27T05:14:10.306Z,196.88
2018-06-27T05:15:10.359Z,196.88
2018-06-27T05:16:10.269Z,196.88
2018-06-27T05:17:10.253Z,202.50
2018-06-27T05:18:10.232Z,202.50
2018-06-27T05:19:10.817Z,202.50
2018-06-27T05:20:10.196Z,202.50
2018-06-27T05:21:10.177Z,202.50
2018-06-27T05:22:10.161Z,208.13
2018-06-27T05:23:10.141Z,208.13
2018-06-27T05:24:10.147Z,208.13
2018-06-27T05:25:10.104Z,208.13
2018-06-27T05:26:10.087Z,208.13
2018-06-27T05:27:10.069Z,208.13
2018-06-27T05:28:10.075Z,208.13
2018-06-27T05:29:10.035Z,208.13
2018-06-27T05:30:10.028Z,213.75
2018-06-27T05:31:09.995Z,213.75
2018-06-27T05:32:09.979Z,213.75
2018-06-27T05:33:09.958Z,219.38
2018-06-27T05:34:09.942Z,219.38
2018-06-27T05:35:09.923Z,219.38
2018-06-27T05:36:09.915Z,219.38
2018-06-27T05:37:09.888Z,225.00
2018-06-27T05:38:09.869Z,225.00
2018-06-27T05:39:09.850Z,230.63
2018-06-27T05:40:09.835Z,230.63
2018-06-27T05:41:09.833Z,230.63
2018-06-27T05:42:09.796Z,230.63
2018-06-27T05:43:09.779Z,236.25
2018-06-27T05:44:09.779Z,236.25
2018-06-27T05:45:09.744Z,241.88
2018-06-27T05:46:09.724Z,241.88
2018-06-27T05:47:09.723Z,241.88
2018-06-27T05:48:09.689Z,247.50
2018-06-27T05:49:09.672Z,247.50
2018-06-27T05:50:09.654Z,253.13
2018-06-27T05:51:09.637Z,253.13
2018-06-27T05:52:09.619Z,253.13
2018-06-27T05:53:09.667Z,258.75
2018-06-27T05:54:09.583Z,258.75
2018-06-27T05:55:09.567Z,258.75
2018-06-27T05:56:09.550Z,264.38
2018-06-27T05:57:09.531Z,264.38
2018-06-27T05:58:09.535Z,264.38
2018-06-27T05:59:09.510Z,264.38
2018-06-27T06:00:09.479Z,270.00
2018-06-27T06:01:09.463Z,270.00
2018-06-27T06:02:09.445Z,264.38
2018-06-27T06:03:09.429Z,264.38
2018-06-27T06:04:09.429Z,264.38
2018-06-27T06:05:09.399Z,270.00
2018-06-27T06:06:09.380Z,270.00
2018-06-27T06:07:09.362Z,270.00
2018-06-27T06:08:09.346Z,270.00
2018-06-27T06:09:09.347Z,270.00
2018-06-27T06:10:09.329Z,275.63
2018-06-27T06:11:09.302Z,275.63
2018-06-27T06:12:09.281Z,275.63
2018-06-27T06:13:09.266Z,275.63
2018-06-27T06:14:09.251Z,275.63
2018-06-27T06:15:09.236Z,275.63
2018-06-27T06:16:09.233Z,270.00
2018-06-27T06:17:09.202Z,270.00
2018-06-27T06:18:09.189Z,270.00
2018-06-27T06:19:09.174Z,270.00
2018-06-27T06:20:09.159Z,275.63
2018-06-27T06:21:09.162Z,270.00
2018-06-27T06:22:09.126Z,275.63
2018-06-27T06:23:09.108Z,275.63
2018-06-27T06:24:09.095Z,275.63
2018-06-27T06:25:09.080Z,275.63
2018-06-27T06:26:09.066Z,275.63
2018-06-27T06:27:09.066Z,275.63
2018-06-27T06:28:09.036Z,275.63
2018-06-27T06:29:09.020Z,275.63
2018-06-27T06:30:09.007Z,275.63
2018-06-27T06:31:08.991Z,275.63
2018-06-27T06:32:08.984Z,275.63
2018-06-27T06:33:08.972Z,275.63
2018-06-27T06:34:08.948Z,275.63
2018-06-27T06:35:08.934Z,281.25
2018-06-27T06:36:08.921Z,281.25
2018-06-27T06:37:08.905Z,281.25
2018-06-27T06:38:08.904Z,281.25
2018-06-27T06:39:08.875Z,281.25
2018-06-27T06:40:08.861Z,281.25
2018-06-27T06:41:08.846Z,281.25
2018-06-27T06:42:08.835Z,281.25
2018-06-27T06:43:08.817Z,281.25
2018-06-27T06:44:08.821Z,281.25
2018-06-27T06:45:08.791Z,281.25
2018-06-27T06:46:08.817Z,281.25
2018-06-27T06:47:08.762Z,281.25
2018-06-27T06:48:08.750Z,286.88
2018-06-27T06:49:08.733Z,281.25
2018-06-27T06:50:08.732Z,281.25
2018-06-27T06:51:08.708Z,281.25
2018-06-27T06:52:08.713Z,281.25
2018-06-27T06:53:08.678Z,281.25
2018-06-27T06:54:08.663Z,286.88
2018-06-27T06:55:08.671Z,286.88
2018-06-27T06:56:08.637Z,286.88
2018-06-27T06:57:08.623Z,286.88
2018-06-27T06:58:08.610Z,286.88
2018-06-27T06:59:08.597Z,286.88
2018-06-27T07:00:08.584Z,286.88
2018-06-27T07:01:08.594Z,292.50
2018-06-27T07:02:08.556Z,292.50
2018-06-27T07:03:08.542Z,286.88
2018-06-27T07:04:08.529Z,286.88
2018-06-27T07:05:08.518Z,292.50
2018-06-27T07:06:08.504Z,292.50
2018-06-27T07:07:08.511Z,292.50
2018-06-27T07:08:08.475Z,292.50
2018-06-27T07:09:08.461Z,292.50
2018-06-27T07:10:08.448Z,292.50
2018-06-27T07:11:08.521Z,292.50
2018-06-27T07:12:08.421Z,292.50
2018-06-27T07:13:08.421Z,292.50
2018-06-27T07:14:08.396Z,292.50
2018-06-27T07:15:08.385Z,292.50
2018-06-27T07:16:08.373Z,292.50
2018-06-27T07:17:08.354Z,292.50
2018-06-27T07:18:08.358Z,298.13
2018-06-27T07:19:08.330Z,298.13
2018-06-27T07:20:08.313Z,298.13
2018-06-27T07:21:08.302Z,298.13
2018-06-27T07:22:08.291Z,298.13
2018-06-27T07:23:08.278Z,298.13
2018-06-27T07:24:08.314Z,298.13
2018-06-27T07:25:08.253Z,298.13
2018-06-27T07:26:08.240Z,298.13
2018-06-27T07:27:08.225Z,298.13
2018-06-27T07:28:08.219Z,298.13
2018-06-27T07:29:08.198Z,303.75
2018-06-27T07:30:08.197Z,303.75
2018-06-27T07:31:08.174Z,309.38
2018-06-27T07:32:08.162Z,303.75
2018-06-27T07:33:08.147Z,303.75
2018-06-27T07:34:08.136Z,298.13
2018-06-27T07:35:08.141Z,292.50
2018-06-27T07:36:08.110Z,292.50
2018-06-27T07:37:08.099Z,292.50
2018-06-27T07:38:08.084Z,292.50
2018-06-27T07:39:08.072Z,292.50
2018-06-27T07:40:08.058Z,292.50
2018-06-27T07:41:08.066Z,292.50
2018-06-27T07:42:08.037Z,292.50
2018-06-27T07:43:08.019Z,292.50
2018-06-27T07:44:08.008Z,292.50
2018-06-27T07:45:07.996Z,292.50
2018-06-27T07:46:07.982Z,292.50
2018-06-27T07:47:07.985Z,292.50
2018-06-27T07:48:07.956Z,292.50
2018-06-27T07:49:07.945Z,292.50
2018-06-27T07:50:07.929Z,292.50
2018-06-27T07:51:07.917Z,292.50
2018-06-27T07:52:07.919Z,292.50
2018-06-27T07:53:07.891Z,298.13
2018-06-27T07:54:07.877Z,298.13
2018-06-27T07:55:07.882Z,298.13
2018-06-27T07:56:07.853Z,298.13
2018-06-27T07:57:07.839Z,298.13
2018-06-27T07:58:07.850Z,298.13
2018-06-27T07:59:07.813Z,298.13
2018-06-27T08:00:07.801Z,298.13
2018-06-27T08:01:07.789Z,298.13
2018-06-27T08:02:07.775Z,298.13
2018-06-27T08:03:07.762Z,298.13
2018-06-27T08:04:07.760Z,298.13
2018-06-27T08:05:07.735Z,298.13
2018-06-27T08:06:07.724Z,298.13
2018-06-27T08:07:07.709Z,298.13
2018-06-27T08:08:07.700Z,298.13
2018-06-27T08:09:07.695Z,298.13
2018-06-27T08:10:07.669Z,298.13
2018-06-27T08:11:07.657Z,298.13
2018-06-27T08:12:07.658Z,298.13
2018-06-27T08:13:07.631Z,303.75
2018-06-27T08:14:07.639Z,303.75
2018-06-27T08:15:07.604Z,303.75
2018-06-27T08:16:07.592Z,303.75
2018-06-27T08:17:07.581Z,303.75
2018-06-27T08:18:07.567Z,303.75
2018-06-27T08:19:07.552Z,303.75
2018-06-27T08:20:07.557Z,303.75
2018-06-27T08:21:07.525Z,303.75
2018-06-27T08:22:07.512Z,303.75
2018-06-27T08:23:07.500Z,303.75
2018-06-27T08:24:07.487Z,303.75
2018-06-27T08:25:07.473Z,303.75
2018-06-27T08:26:07.517Z,309.38
2018-06-27T08:27:07.446Z,309.38
2018-06-27T08:28:07.437Z,309.38
2018-06-27T08:29:07.420Z,309.38
2018-06-27T08:30:07.409Z,309.38
2018-06-27T08:31:07.395Z,309.38
2018-06-27T08:32:07.406Z,309.38
2018-06-27T08:33:07.374Z,309.38
2018-06-27T08:34:07.357Z,309.38
2018-06-27T08:35:07.351Z,309.38
2018-06-27T08:36:07.335Z,309.38
2018-06-27T08:37:07.334Z,309.38
2018-06-27T08:38:07.305Z,309.38
2018-06-27T08:39:07.293Z,309.38
2018-06-27T08:40:07.279Z,309.38
2018-06-27T08:41:07.265Z,309.38
2018-06-27T08:42:07.252Z,309.38
2018-06-27T08:43:07.256Z,309.38
2018-06-27T08:44:07.228Z,309.38
2018-06-27T08:45:07.214Z,315.00
2018-06-27T08:46:07.202Z,315.00
2018-06-27T08:47:07.189Z,309.38
2018-06-27T08:48:07.178Z,315.00
2018-06-27T08:49:07.173Z,315.00
2018-06-27T08:50:07.151Z,315.00
2018-06-27T08:51:07.137Z,315.00
2018-06-27T08:52:07.126Z,315.00
2018-06-27T08:53:07.110Z,315.00
2018-06-27T08:54:07.115Z,315.00
2018-06-27T08:55:07.088Z,320.63
2018-06-27T08:56:07.075Z,320.63
2018-06-27T08:57:07.064Z,320.63
2018-06-27T08:58:07.052Z,320.63
2018-06-27T08:59:07.036Z,320.63
2018-06-27T09:00:07.043Z,320.63
2018-06-27T09:01:07.013Z,326.25
2018-06-27T09:02:06.999Z,326.25
2018-06-27T09:03:06.985Z,326.25
2018-06-27T09:04:06.975Z,326.25
2018-06-27T09:05:06.959Z,326.25
2018-06-27T09:06:06.957Z,326.25
2018-06-27T09:07:06.934Z,326.25
2018-06-27T09:08:06.922Z,326.25
2018-06-27T09:09:06.965Z,326.25
2018-06-27T09:10:06.896Z,326.25
2018-06-27T09:11:06.904Z,326.25
2018-06-27T09:12:06.871Z,326.25
2018-06-27T09:13:06.858Z,331.88
2018-06-27T09:14:06.848Z,331.88
2018-06-27T09:15:06.836Z,331.88
2018-06-27T09:16:06.822Z,331.88
2018-06-27T09:17:06.853Z,331.88
2018-06-27T09:18:06.796Z,331.88
2018-06-27T09:19:06.784Z,331.88
2018-06-27T09:20:06.773Z,337.50
2018-06-27T09:21:06.760Z,337.50
2018-06-27T09:22:06.755Z,337.50
2018-06-27T09:23:06.747Z,337.50
2018-06-27T09:24:06.722Z,337.50
2018-06-27T09:25:06.710Z,343.13
2018-06-27T09:26:06.697Z,343.13
2018-06-27T09:27:06.687Z,343.13
2018-06-27T09:28:06.711Z,348.75
2018-06-27T09:29:06.716Z,343.13
2018-06-27T09:30:06.647Z,348.75
2018-06-27T09:31:06.653Z,348.75
2018-06-27T09:32:06.625Z,348.75
2018-06-27T09:33:06.612Z,348.75
2018-06-27T09:34:06.679Z,354.38
2018-06-27T09:35:06.590Z,354.38
2018-06-27T09:36:06.580Z,354.38
2018-06-27T09:37:06.565Z,354.38
2018-06-27T09:38:06.552Z,354.38
2018-06-27T09:39:06.541Z,354.38
2018-06-27T09:40:06.554Z,360.00
2018-06-27T09:41:06.517Z,360.00
2018-06-27T09:42:06.566Z,365.63
2018-06-27T09:43:06.492Z,365.63
2018-06-27T09:44:06.481Z,365.63
2018-06-27T09:45:06.469Z,365.63
2018-06-27T09:46:06.467Z,371.25
2018-06-27T09:47:06.446Z,371.25
2018-06-27T09:48:06.439Z,376.88
2018-06-27T09:49:06.424Z,388.13
2018-06-27T09:50:06.409Z,388.13
2018-06-27T09:51:06.416Z,382.50
2018-06-27T09:52:06.386Z,388.13
2018-06-27T09:53:06.375Z,393.75
2018-06-27T09:54:06.362Z,393.75
2018-06-27T09:55:06.355Z,399.38
2018-06-27T09:56:06.339Z,405.00
2018-06-27T09:57:06.385Z,399.38
2018-06-27T09:58:06.314Z,388.13
2018-06-27T09:59:06.304Z,410.63
2018-06-27T10:00:06.292Z,405.00
2018-06-27T10:01:06.279Z,416.25
2018-06-27T10:02:06.281Z,416.25
2018-06-27T10:03:06.272Z,421.88
2018-06-27T10:04:06.301Z,421.88
2018-06-27T10:05:06.234Z,438.75
2018-06-27T10:06:06.221Z,444.38
2018-06-27T10:07:06.212Z,450.00
2018-06-27T10:08:06.221Z,455.63
2018-06-27T10:09:06.187Z,495.00
2018-06-27T10:10:06.175Z,573.75
2018-06-27T10:11:06.166Z,579.38
2018-06-27T10:12:06.154Z,635.63
2018-06-27T10:13:06.142Z,585.00
2018-06-27T10:14:06.157Z,540.00
2018-06-27T10:15:06.121Z,545.63
2018-06-27T10:16:06.110Z,523.13
2018-06-27T10:17:06.101Z,472.50
2018-06-27T10:18:06.089Z,410.63
2018-06-27T10:19:06.074Z,438.75
2018-06-27T10:20:06.086Z,495.00
2018-06-27T10:21:06.054Z,511.88
2018-06-27T10:22:06.045Z,489.38
2018-06-27T10:23:06.032Z,416.25
2018-06-27T10:24:06.022Z,416.25
2018-06-27T10:25:06.029Z,433.13
2018-06-27T10:26:06.011Z,461.25
2018-06-27T10:27:05.987Z,478.13
2018-06-27T10:28:05.975Z,450.00
2018-06-27T10:29:05.965Z,489.38
2018-06-27T10:30:05.953Z,528.75
2018-06-27T10:31:05.957Z,545.63
2018-06-27T10:32:05.930Z,579.38
2018-06-27T10:33:05.919Z,613.13
2018-06-27T10:34:05.910Z,601.88
2018-06-27T10:35:05.898Z,568.13
2018-06-27T10:36:05.900Z,556.88
2018-06-27T10:37:05.875Z,568.13
2018-06-27T10:38:05.863Z,528.75
2018-06-27T10:39:05.851Z,511.88
2018-06-27T10:40:05.841Z,466.88
2018-06-27T10:41:05.831Z,517.50
2018-06-27T10:42:05.832Z,461.25
2018-06-27T10:43:05.810Z,523.13
2018-06-27T10:44:05.797Z,511.88
2018-06-27T10:45:05.787Z,579.38
2018-06-27T10:46:05.780Z,579.38
2018-06-27T10:47:05.796Z,523.13
2018-06-27T10:48:05.755Z,573.75
2018-06-27T10:49:05.745Z,495.00
2018-06-27T10:50:05.733Z,500.63
2018-06-27T10:51:05.723Z,601.88
2018-06-27T10:52:05.713Z,607.50
2018-06-27T10:53:05.719Z,607.50
2018-06-27T10:54:05.690Z,613.13
2018-06-27T10:55:05.679Z,618.75
2018-06-27T10:56:05.670Z,630.00
2018-06-27T10:57:05.658Z,635.63
2018-06-27T10:58:05.647Z,630.00
2018-06-27T10:59:05.662Z,585.00
2018-06-27T11:00:05.635Z,635.63
2018-06-27T11:01:05.692Z,658.13
2018-06-27T11:02:05.605Z,697.50
2018-06-27T11:03:05.596Z,793.13
2018-06-27T11:04:05.609Z,826.88
2018-06-27T11:05:05.582Z,804.38
2018-06-27T11:06:05.576Z,725.63
2018-06-27T11:07:05.556Z,703.13
2018-06-27T11:08:05.547Z,703.13
2018-06-27T11:09:05.536Z,776.25
2018-06-27T11:10:06.351Z,916.88
2018-06-27T11:11:05.518Z,945.00
2018-06-27T11:12:05.507Z,826.88
2018-06-27T11:13:05.498Z,826.88
2018-06-27T11:14:05.558Z,826.88
2018-06-27T11:15:05.485Z,838.13
2018-06-27T11:16:05.503Z,866.25
2018-06-27T11:17:05.458Z,950.63
2018-06-27T11:18:05.448Z,978.75
2018-06-27T11:19:05.438Z,1001.25
2018-06-27T11:20:05.427Z,1001.25
2018-06-27T11:21:05.418Z,990.00
2018-06-27T11:22:05.419Z,1018.13
2018-06-27T11:23:05.399Z,1057.50
2018-06-27T11:24:05.391Z,1040.63
2018-06-27T11:25:05.378Z,1029.38
2018-06-27T11:26:05.371Z,1074.38
2018-06-27T11:27:05.377Z,1074.38
2018-06-27T11:28:05.352Z,1096.88
2018-06-27T11:29:05.343Z,1012.50
2018-06-27T11:30:05.333Z,967.50
2018-06-27T11:31:05.325Z,900.00
2018-06-27T11:32:05.323Z,916.88
2018-06-27T11:33:05.323Z,776.25
2018-06-27T11:34:05.298Z,714.38
2018-06-27T11:35:05.289Z,669.38
2018-06-27T11:36:05.282Z,646.88
2018-06-27T11:37:05.271Z,680.63
2018-06-27T11:38:05.261Z,641.25
2018-06-27T11:39:05.267Z,613.13
2018-06-27T11:40:05.246Z,618.75
2018-06-27T11:41:05.234Z,613.13
2018-06-27T11:42:05.231Z,596.25
2018-06-27T11:43:05.221Z,613.13
2018-06-27T11:44:05.224Z,691.88
2018-06-27T11:45:05.201Z,680.63
2018-06-27T11:46:05.189Z,596.25
2018-06-27T11:47:05.190Z,585.00
2018-06-27T11:48:05.170Z,601.88
2018-06-27T11:49:05.159Z,663.75
2018-06-27T11:50:05.173Z,663.75
2018-06-27T11:51:05.143Z,680.63
2018-06-27T11:52:05.135Z,697.50
2018-06-27T11:53:05.121Z,697.50
2018-06-27T11:54:05.117Z,691.88
2018-06-27T11:55:05.104Z,714.38
2018-06-27T11:56:05.106Z,776.25
2018-06-27T11:57:05.087Z,838.13
2018-06-27T11:58:05.075Z,883.13
2018-06-27T11:59:05.067Z,815.63
2018-06-27T12:00:05.057Z,866.25
2018-06-27T12:01:05.066Z,888.75
2018-06-27T12:02:05.039Z,883.13
2018-06-27T12:03:05.030Z,900.00
2018-06-27T12:04:05.021Z,888.75
2018-06-27T12:05:05.011Z,883.13
2018-06-27T12:06:05.001Z,883.13
2018-06-27T12:07:05.016Z,984.38
2018-06-27T12:08:04.984Z,922.50
2018-06-27T12:09:04.976Z,984.38
2018-06-27T12:10:04.966Z,956.25
2018-06-27T12:11:04.958Z,922.50
2018-06-27T12:12:04.950Z,900.00
2018-06-27T12:13:04.948Z,866.25
2018-06-27T12:14:04.929Z,826.88
2018-06-27T12:15:04.925Z,787.50
2018-06-27T12:16:04.909Z,776.25
2018-06-27T12:17:04.902Z,759.38
2018-06-27T12:18:04.909Z,753.75
2018-06-27T12:19:04.882Z,742.50
2018-06-27T12:20:04.873Z,720.00
2018-06-27T12:21:04.864Z,708.75
2018-06-27T12:22:04.855Z,714.38
2018-06-27T12:23:04.846Z,714.38
2018-06-27T12:24:04.855Z,720.00
2018-06-27T12:25:04.830Z,742.50
2018-06-27T12:26:04.820Z,742.50
2018-06-27T12:27:04.812Z,753.75
2018-06-27T12:28:04.803Z,753.75
2018-06-27T12:29:04.795Z,748.13
2018-06-27T12:30:04.806Z,742.50
2018-06-27T12:31:04.781Z,742.50
2018-06-27T12:32:04.769Z,765.00
2018-06-27T12:33:04.763Z,798.75
2018-06-27T12:34:04.753Z,855.00
2018-06-27T12:35:04.745Z,888.75
2018-06-27T12:36:04.745Z,911.25
2018-06-27T12:37:04.728Z,860.63
2018-06-27T12:38:04.717Z,798.75
2018-06-27T12:39:04.710Z,759.38
2018-06-27T12:40:04.701Z,843.75
2018-06-27T12:41:04.710Z,759.38
2018-06-27T12:42:04.685Z,810.00